sensor_id;sensor_type;location;lat;lon;timestamp;pressure;altitude;pressure_sealevel;temperature;humidity
37832;BME280;23671;38.090;-122.570;2023-07-31T00:02:15;101352.28;;;30.95;34.72
37832;BME280;23671;38.090;-122.570;2023-07-31T00:04:42;101354.16;;;30.94;34.41
37832;BME280;23671;38.090;-122.570;2023-07-31T00:07:15;101357.72;;;30.95;34.72
37832;BME280;23671;38.090;-122.570;2023-07-31T00:09:42;101352.50;;;30.93;34.53
37832;BME280;23671;38.090;-122.570;2023-07-31T00:12:10;101352.38;;;30.88;34.51
37832;BME280;23671;38.090;-122.570;2023-07-31T00:14:37;101342.56;;;30.87;34.45
37832;BME280;23671;38.090;-122.570;2023-07-31T00:17:07;101347.19;;;30.87;34.38
37832;BME280;23671;38.090;-122.570;2023-07-31T00:19:34;101339.47;;;30.84;34.68
37832;BME280;23671;38.090;-122.570;2023-07-31T00:22:07;101346.00;;;30.83;34.46
37832;BME280;23671;38.090;-122.570;2023-07-31T00:24:34;101340.97;;;30.80;34.49
37832;BME280;23671;38.090;-122.570;2023-07-31T00:27:02;101339.31;;;30.79;34.45
37832;BME280;23671;38.090;-122.570;2023-07-31T00:29:29;101334.94;;;30.78;34.34
37832;BME280;23671;38.090;-122.570;2023-07-31T00:31:57;101337.91;;;30.76;34.39
37832;BME280;23671;38.090;-122.570;2023-07-31T00:34:24;101337.53;;;30.73;34.37
37832;BME280;23671;38.090;-122.570;2023-07-31T00:36:51;101341.34;;;30.72;34.39
37832;BME280;23671;38.090;-122.570;2023-07-31T00:39:24;101332.34;;;30.71;34.28
37832;BME280;23671;38.090;-122.570;2023-07-31T00:41:54;101333.63;;;30.69;34.46
37832;BME280;23671;38.090;-122.570;2023-07-31T00:44:21;101332.22;;;30.66;34.33
37832;BME280;23671;38.090;-122.570;2023-07-31T00:46:48;101335.44;;;30.63;34.02
37832;BME280;23671;38.090;-122.570;2023-07-31T00:49:16;101333.41;;;30.59;34.07
37832;BME280;23671;38.090;-122.570;2023-07-31T00:51:43;101323.56;;;30.58;34.02
37832;BME280;23671;38.090;-122.570;2023-07-31T00:54:10;101327.59;;;30.55;34.12
37832;BME280;23671;38.090;-122.570;2023-07-31T00:56:38;101324.28;;;30.53;33.57
37832;BME280;23671;38.090;-122.570;2023-07-31T00:59:05;101318.47;;;30.50;33.70
37832;BME280;23671;38.090;-122.570;2023-07-31T01:01:32;101318.97;;;30.47;33.62
37832;BME280;23671;38.090;-122.570;2023-07-31T01:03:59;101308.28;;;30.45;33.66
37832;BME280;23671;38.090;-122.570;2023-07-31T01:11:57;101306.38;;;30.34;33.32
37832;BME280;23671;38.090;-122.570;2023-07-31T01:14:27;101309.59;;;30.31;33.38
37832;BME280;23671;38.090;-122.570;2023-07-31T01:16:54;101303.97;;;30.26;33.55
37832;BME280;23671;38.090;-122.570;2023-07-31T01:19:23;101309.41;;;30.26;33.64
37832;BME280;23671;38.090;-122.570;2023-07-31T01:22:16;101301.13;;;30.21;33.78
37832;BME280;23671;38.090;-122.570;2023-07-31T01:25:12;101294.50;;;30.17;33.64
37832;BME280;23671;38.090;-122.570;2023-07-31T01:28:07;101299.00;;;30.11;33.47
37832;BME280;23671;38.090;-122.570;2023-07-31T01:30:41;101300.53;;;30.07;33.66
37832;BME280;23671;38.090;-122.570;2023-07-31T01:33:08;101309.19;;;30.04;33.34
37832;BME280;23671;38.090;-122.570;2023-07-31T01:35:39;101307.75;;;30.02;33.55
37832;BME280;23671;38.090;-122.570;2023-07-31T01:38:06;101302.16;;;29.97;33.53
37832;BME280;23671;38.090;-122.570;2023-07-31T01:40:33;101309.97;;;29.93;33.28
37832;BME280;23671;38.090;-122.570;2023-07-31T01:43:01;101305.44;;;29.87;33.64
37832;BME280;23671;38.090;-122.570;2023-07-31T01:45:29;101305.09;;;29.84;33.65
37832;BME280;23671;38.090;-122.570;2023-07-31T01:47:56;101296.56;;;29.80;33.57
37832;BME280;23671;38.090;-122.570;2023-07-31T01:50:26;101295.38;;;29.76;33.18
37832;BME280;23671;38.090;-122.570;2023-07-31T01:52:53;101288.72;;;29.72;33.01
37832;BME280;23671;38.090;-122.570;2023-07-31T01:55:23;101281.69;;;29.65;32.99
37832;BME280;23671;38.090;-122.570;2023-07-31T01:57:50;101294.09;;;29.60;32.76
37832;BME280;23671;38.090;-122.570;2023-07-31T02:00:17;101294.22;;;29.54;32.92
37832;BME280;23671;38.090;-122.570;2023-07-31T02:02:44;101298.69;;;29.48;33.02
37832;BME280;23671;38.090;-122.570;2023-07-31T02:05:11;101307.53;;;29.44;32.47
37832;BME280;23671;38.090;-122.570;2023-07-31T02:07:39;101305.75;;;29.38;32.06
37832;BME280;23671;38.090;-122.570;2023-07-31T02:10:06;101306.41;;;29.33;31.75
37832;BME280;23671;38.090;-122.570;2023-07-31T02:12:33;101299.16;;;29.27;31.56
37832;BME280;23671;38.090;-122.570;2023-07-31T02:15:00;101300.72;;;29.23;31.08
37832;BME280;23671;38.090;-122.570;2023-07-31T02:17:27;101308.28;;;29.21;31.33
37832;BME280;23671;38.090;-122.570;2023-07-31T02:19:56;101304.16;;;29.12;31.37
37832;BME280;23671;38.090;-122.570;2023-07-31T02:22:26;101314.91;;;29.07;31.95
37832;BME280;23671;38.090;-122.570;2023-07-31T02:24:53;101322.09;;;29.02;31.41
37832;BME280;23671;38.090;-122.570;2023-07-31T02:27:20;101315.22;;;28.99;31.21
37832;BME280;23671;38.090;-122.570;2023-07-31T02:29:50;101327.34;;;28.97;31.18
37832;BME280;23671;38.090;-122.570;2023-07-31T02:32:20;101325.72;;;28.96;31.52
37832;BME280;23671;38.090;-122.570;2023-07-31T02:34:47;101332.06;;;28.90;31.44
37832;BME280;23671;38.090;-122.570;2023-07-31T02:37:14;101329.25;;;28.78;31.84
37832;BME280;23671;38.090;-122.570;2023-07-31T02:39:42;101335.59;;;28.72;31.94
37832;BME280;23671;38.090;-122.570;2023-07-31T02:42:09;101341.91;;;28.66;31.91
37832;BME280;23671;38.090;-122.570;2023-07-31T02:44:36;101346.59;;;28.59;31.61
37832;BME280;23671;38.090;-122.570;2023-07-31T02:47:06;101345.19;;;28.50;31.65
37832;BME280;23671;38.090;-122.570;2023-07-31T02:49:33;101355.03;;;28.44;31.83
37832;BME280;23671;38.090;-122.570;2023-07-31T02:52:00;101350.06;;;28.41;31.59
37832;BME280;23671;38.090;-122.570;2023-07-31T02:54:27;101349.50;;;28.33;31.78
37832;BME280;23671;38.090;-122.570;2023-07-31T02:56:54;101356.06;;;28.25;31.83
37832;BME280;23671;38.090;-122.570;2023-07-31T02:59:22;101361.56;;;28.19;31.76
37832;BME280;23671;38.090;-122.570;2023-07-31T03:01:52;101348.84;;;28.13;31.87
37832;BME280;23671;38.090;-122.570;2023-07-31T03:04:19;101361.19;;;28.09;32.09
37832;BME280;23671;38.090;-122.570;2023-07-31T03:06:46;101361.47;;;28.01;32.15
37832;BME280;23671;38.090;-122.570;2023-07-31T03:09:13;101365.06;;;27.95;32.20
37832;BME280;23671;38.090;-122.570;2023-07-31T03:11:40;101364.47;;;27.86;32.22
37832;BME280;23671;38.090;-122.570;2023-07-31T03:14:07;101367.22;;;27.79;32.54
37832;BME280;23671;38.090;-122.570;2023-07-31T03:16:34;101362.66;;;27.73;32.26
37832;BME280;23671;38.090;-122.570;2023-07-31T03:19:01;101366.44;;;27.66;32.04
37832;BME280;23671;38.090;-122.570;2023-07-31T03:21:28;101370.25;;;27.58;32.53
37832;BME280;23671;38.090;-122.570;2023-07-31T03:23:56;101366.13;;;27.49;32.38
37832;BME280;23671;38.090;-122.570;2023-07-31T03:26:23;101371.97;;;27.46;32.04
37832;BME280;23671;38.090;-122.570;2023-07-31T03:28:53;101368.47;;;27.39;32.38
37832;BME280;23671;38.090;-122.570;2023-07-31T03:31:20;101357.66;;;27.26;32.54
37832;BME280;23671;38.090;-122.570;2023-07-31T03:33:47;101366.84;;;27.19;32.26
37832;BME280;23671;38.090;-122.570;2023-07-31T03:36:17;101356.63;;;27.14;32.51
37832;BME280;23671;38.090;-122.570;2023-07-31T03:38:45;101356.25;;;27.04;32.53
37832;BME280;23671;38.090;-122.570;2023-07-31T03:41:13;101361.09;;;26.89;32.74
37832;BME280;23671;38.090;-122.570;2023-07-31T03:43:40;101364.25;;;26.79;32.83
37832;BME280;23671;38.090;-122.570;2023-07-31T03:46:07;101364.69;;;26.76;32.98
37832;BME280;23671;38.090;-122.570;2023-07-31T03:48:34;101361.53;;;26.60;32.95
37832;BME280;23671;38.090;-122.570;2023-07-31T03:51:01;101358.00;;;26.53;33.04
37832;BME280;23671;38.090;-122.570;2023-07-31T03:53:28;101357.16;;;26.46;33.25
37832;BME280;23671;38.090;-122.570;2023-07-31T03:55:55;101359.25;;;26.37;33.14
37832;BME280;23671;38.090;-122.570;2023-07-31T03:58:22;101360.50;;;26.28;33.19
37832;BME280;23671;38.090;-122.570;2023-07-31T04:00:49;101359.66;;;26.21;33.43
37832;BME280;23671;38.090;-122.570;2023-07-31T04:03:18;101364.47;;;26.13;33.06
37832;BME280;23671;38.090;-122.570;2023-07-31T04:05:46;101367.31;;;26.04;33.10
37832;BME280;23671;38.090;-122.570;2023-07-31T04:08:13;101362.53;;;25.93;33.32
37832;BME280;23671;38.090;-122.570;2023-07-31T04:10:40;101363.94;;;25.83;33.16
37832;BME280;23671;38.090;-122.570;2023-07-31T04:13:07;101363.31;;;25.74;33.64
37832;BME280;23671;38.090;-122.570;2023-07-31T04:15:34;101367.44;;;25.64;33.48
37832;BME280;23671;38.090;-122.570;2023-07-31T04:18:01;101368.66;;;25.55;33.58
37832;BME280;23671;38.090;-122.570;2023-07-31T04:20:28;101362.59;;;25.46;33.44
37832;BME280;23671;38.090;-122.570;2023-07-31T04:22:55;101366.47;;;25.37;33.58
37832;BME280;23671;38.090;-122.570;2023-07-31T04:25:25;101376.84;;;25.27;33.59
37832;BME280;23671;38.090;-122.570;2023-07-31T04:27:52;101379.31;;;25.22;33.88
37832;BME280;23671;38.090;-122.570;2023-07-31T04:30:19;101378.84;;;25.12;34.03
37832;BME280;23671;38.090;-122.570;2023-07-31T04:32:46;101387.53;;;25.01;34.08
37832;BME280;23671;38.090;-122.570;2023-07-31T04:35:13;101394.53;;;24.95;34.25
37832;BME280;23671;38.090;-122.570;2023-07-31T04:37:40;101401.56;;;24.90;34.01
37832;BME280;23671;38.090;-122.570;2023-07-31T04:40:08;101402.75;;;24.81;34.12
37832;BME280;23671;38.090;-122.570;2023-07-31T04:42:35;101397.13;;;24.76;34.20
37832;BME280;23671;38.090;-122.570;2023-07-31T04:45:02;101406.19;;;24.68;34.10
37832;BME280;23671;38.090;-122.570;2023-07-31T04:47:29;101402.38;;;24.63;34.11
37832;BME280;23671;38.090;-122.570;2023-07-31T04:49:56;101398.78;;;24.56;34.31
37832;BME280;23671;38.090;-122.570;2023-07-31T04:52:26;101404.53;;;24.46;34.30
37832;BME280;23671;38.090;-122.570;2023-07-31T04:54:54;101399.47;;;24.37;34.53
37832;BME280;23671;38.090;-122.570;2023-07-31T04:57:21;101406.06;;;24.34;34.45
37832;BME280;23671;38.090;-122.570;2023-07-31T04:59:48;101405.19;;;24.27;34.47
37832;BME280;23671;38.090;-122.570;2023-07-31T05:02:16;101413.03;;;24.22;34.47
37832;BME280;23671;38.090;-122.570;2023-07-31T05:04:43;101409.06;;;24.18;34.44
37832;BME280;23671;38.090;-122.570;2023-07-31T05:07:10;101416.03;;;24.12;34.62
37832;BME280;23671;38.090;-122.570;2023-07-31T05:09:37;101421.19;;;24.07;34.64
37832;BME280;23671;38.090;-122.570;2023-07-31T05:12:06;101416.19;;;24.04;34.45
37832;BME280;23671;38.090;-122.570;2023-07-31T05:14:33;101412.84;;;24.02;34.42
37832;BME280;23671;38.090;-122.570;2023-07-31T05:17:00;101409.19;;;23.95;34.41
37832;BME280;23671;38.090;-122.570;2023-07-31T05:19:27;101412.84;;;23.88;34.52
37832;BME280;23671;38.090;-122.570;2023-07-31T05:21:54;101416.28;;;23.82;34.66
37832;BME280;23671;38.090;-122.570;2023-07-31T05:24:21;101419.56;;;23.77;34.72
37832;BME280;23671;38.090;-122.570;2023-07-31T05:26:48;101410.75;;;23.69;34.75
37832;BME280;23671;38.090;-122.570;2023-07-31T05:29:15;101410.03;;;23.60;34.67
37832;BME280;23671;38.090;-122.570;2023-07-31T05:31:43;101410.16;;;23.52;34.86
37832;BME280;23671;38.090;-122.570;2023-07-31T05:34:10;101408.19;;;23.46;34.96
37832;BME280;23671;38.090;-122.570;2023-07-31T05:36:37;101403.56;;;23.40;34.83
37832;BME280;23671;38.090;-122.570;2023-07-31T05:39:04;101399.31;;;23.31;35.04
37832;BME280;23671;38.090;-122.570;2023-07-31T05:41:35;101400.66;;;23.27;35.05
37832;BME280;23671;38.090;-122.570;2023-07-31T05:44:02;101413.84;;;23.22;35.08
37832;BME280;23671;38.090;-122.570;2023-07-31T05:46:29;101417.31;;;23.16;35.21
37832;BME280;23671;38.090;-122.570;2023-07-31T05:48:58;101410.97;;;23.09;35.21
37832;BME280;23671;38.090;-122.570;2023-07-31T05:51:27;101410.25;;;23.00;35.33
37832;BME280;23671;38.090;-122.570;2023-07-31T05:53:54;101420.53;;;22.97;35.41
37832;BME280;23671;38.090;-122.570;2023-07-31T05:56:21;101413.00;;;22.92;35.54
37832;BME280;23671;38.090;-122.570;2023-07-31T05:58:48;101408.34;;;22.86;35.56
37832;BME280;23671;38.090;-122.570;2023-07-31T06:01:19;101404.91;;;22.78;35.63
37832;BME280;23671;38.090;-122.570;2023-07-31T06:03:47;101408.31;;;22.72;35.57
37832;BME280;23671;38.090;-122.570;2023-07-31T06:06:14;101403.84;;;22.64;35.67
37832;BME280;23671;38.090;-122.570;2023-07-31T06:08:42;101406.94;;;22.61;35.65
37832;BME280;23671;38.090;-122.570;2023-07-31T06:11:09;101397.53;;;22.57;35.87
37832;BME280;23671;38.090;-122.570;2023-07-31T06:13:36;101401.94;;;22.50;36.04
37832;BME280;23671;38.090;-122.570;2023-07-31T06:16:03;101396.56;;;22.50;35.93
37832;BME280;23671;38.090;-122.570;2023-07-31T06:18:35;101396.25;;;22.45;35.90
37832;BME280;23671;38.090;-122.570;2023-07-31T06:21:02;101407.09;;;22.37;36.17
37832;BME280;23671;38.090;-122.570;2023-07-31T06:23:32;101398.00;;;22.38;35.94
37832;BME280;23671;38.090;-122.570;2023-07-31T06:25:59;101408.50;;;22.33;36.18
37832;BME280;23671;38.090;-122.570;2023-07-31T06:28:30;101418.09;;;22.27;36.15
37832;BME280;23671;38.090;-122.570;2023-07-31T06:30:59;101418.84;;;22.21;36.06
37832;BME280;23671;38.090;-122.570;2023-07-31T06:33:27;101413.81;;;22.18;36.33
37832;BME280;23671;38.090;-122.570;2023-07-31T06:35:55;101419.91;;;22.12;36.34
37832;BME280;23671;38.090;-122.570;2023-07-31T06:38:26;101417.09;;;22.06;36.35
37832;BME280;23671;38.090;-122.570;2023-07-31T06:40:54;101424.19;;;21.99;36.49
37832;BME280;23671;38.090;-122.570;2023-07-31T06:43:21;101422.72;;;21.96;36.54
37832;BME280;23671;38.090;-122.570;2023-07-31T06:45:51;101426.59;;;21.94;36.36
37832;BME280;23671;38.090;-122.570;2023-07-31T06:48:20;101427.81;;;21.83;36.60
37832;BME280;23671;38.090;-122.570;2023-07-31T06:50:50;101419.59;;;21.77;36.67
37832;BME280;23671;38.090;-122.570;2023-07-31T06:53:17;101421.16;;;21.71;36.70
37832;BME280;23671;38.090;-122.570;2023-07-31T06:55:44;101426.56;;;21.63;36.82
37832;BME280;23671;38.090;-122.570;2023-07-31T06:58:12;101428.41;;;21.62;36.84
37832;BME280;23671;38.090;-122.570;2023-07-31T07:00:39;101421.88;;;21.57;36.76
37832;BME280;23671;38.090;-122.570;2023-07-31T07:03:06;101421.41;;;21.53;36.93
37832;BME280;23671;38.090;-122.570;2023-07-31T07:05:33;101417.72;;;21.46;37.13
37832;BME280;23671;38.090;-122.570;2023-07-31T07:08:00;101406.84;;;21.40;37.21
37832;BME280;23671;38.090;-122.570;2023-07-31T07:10:27;101415.44;;;21.35;37.01
37832;BME280;23671;38.090;-122.570;2023-07-31T07:12:55;101419.28;;;21.33;37.13
37832;BME280;23671;38.090;-122.570;2023-07-31T07:15:22;101411.78;;;21.28;37.20
37832;BME280;23671;38.090;-122.570;2023-07-31T07:17:49;101418.50;;;21.24;37.31
37832;BME280;23671;38.090;-122.570;2023-07-31T07:20:16;101419.38;;;21.17;37.31
37832;BME280;23671;38.090;-122.570;2023-07-31T07:22:43;101420.91;;;21.11;37.24
37832;BME280;23671;38.090;-122.570;2023-07-31T07:25:11;101411.16;;;21.10;37.49
37832;BME280;23671;38.090;-122.570;2023-07-31T07:27:38;101415.38;;;21.05;37.44
37832;BME280;23671;38.090;-122.570;2023-07-31T07:30:05;101422.94;;;21.01;37.55
37832;BME280;23671;38.090;-122.570;2023-07-31T07:32:32;101421.06;;;20.94;37.69
37832;BME280;23671;38.090;-122.570;2023-07-31T07:35:00;101409.84;;;20.90;37.53
37832;BME280;23671;38.090;-122.570;2023-07-31T07:37:27;101418.41;;;20.86;37.55
37832;BME280;23671;38.090;-122.570;2023-07-31T07:39:54;101419.91;;;20.80;37.72
37832;BME280;23671;38.090;-122.570;2023-07-31T07:42:21;101414.06;;;20.76;37.81
37832;BME280;23671;38.090;-122.570;2023-07-31T07:44:48;101413.88;;;20.70;38.09
37832;BME280;23671;38.090;-122.570;2023-07-31T07:47:15;101409.56;;;20.61;37.91
37832;BME280;23671;38.090;-122.570;2023-07-31T07:49:42;101400.47;;;20.62;37.88
37832;BME280;23671;38.090;-122.570;2023-07-31T07:52:09;101402.84;;;20.57;38.08
37832;BME280;23671;38.090;-122.570;2023-07-31T07:54:36;101404.34;;;20.51;37.91
37832;BME280;23671;38.090;-122.570;2023-07-31T07:57:04;101404.69;;;20.48;38.18
37832;BME280;23671;38.090;-122.570;2023-07-31T07:59:31;101391.25;;;20.40;38.04
37832;BME280;23671;38.090;-122.570;2023-07-31T08:01:58;101393.63;;;20.35;38.32
37832;BME280;23671;38.090;-122.570;2023-07-31T08:04:25;101393.31;;;20.30;38.11
37832;BME280;23671;38.090;-122.570;2023-07-31T08:06:52;101392.78;;;20.27;38.15
37832;BME280;23671;38.090;-122.570;2023-07-31T08:09:19;101395.97;;;20.22;38.26
37832;BME280;23671;38.090;-122.570;2023-07-31T08:11:46;101394.91;;;20.15;38.32
37832;BME280;23671;38.090;-122.570;2023-07-31T08:14:13;101400.78;;;20.11;38.47
37832;BME280;23671;38.090;-122.570;2023-07-31T08:16:40;101411.03;;;20.07;38.50
37832;BME280;23671;38.090;-122.570;2023-07-31T08:19:12;101398.09;;;20.03;38.42
37832;BME280;23671;38.090;-122.570;2023-07-31T08:21:39;101398.75;;;19.97;38.63
37832;BME280;23671;38.090;-122.570;2023-07-31T08:24:06;101396.56;;;19.92;38.66
37832;BME280;23671;38.090;-122.570;2023-07-31T08:26:34;101396.91;;;19.89;38.68
37832;BME280;23671;38.090;-122.570;2023-07-31T08:29:01;101400.91;;;19.85;38.66
37832;BME280;23671;38.090;-122.570;2023-07-31T08:31:29;101398.88;;;19.79;38.91
37832;BME280;23671;38.090;-122.570;2023-07-31T08:33:56;101400.06;;;19.76;38.83
37832;BME280;23671;38.090;-122.570;2023-07-31T08:36:23;101397.88;;;19.72;38.91
37832;BME280;23671;38.090;-122.570;2023-07-31T08:38:51;101408.56;;;19.64;38.70
37832;BME280;23671;38.090;-122.570;2023-07-31T08:41:21;101405.38;;;19.60;39.01
37832;BME280;23671;38.090;-122.570;2023-07-31T08:43:50;101403.53;;;19.61;38.99
37832;BME280;23671;38.090;-122.570;2023-07-31T08:46:19;101402.50;;;19.54;39.10
37832;BME280;23671;38.090;-122.570;2023-07-31T08:48:47;101399.13;;;19.52;38.99
37832;BME280;23671;38.090;-122.570;2023-07-31T08:51:17;101393.44;;;19.47;39.12
37832;BME280;23671;38.090;-122.570;2023-07-31T08:53:44;101392.75;;;19.45;39.07
37832;BME280;23671;38.090;-122.570;2023-07-31T08:56:11;101388.72;;;19.41;39.09
37832;BME280;23671;38.090;-122.570;2023-07-31T08:58:41;101385.53;;;19.37;39.19
37832;BME280;23671;38.090;-122.570;2023-07-31T09:01:08;101391.19;;;19.34;39.17
37832;BME280;23671;38.090;-122.570;2023-07-31T09:03:37;101389.97;;;19.29;39.47
37832;BME280;23671;38.090;-122.570;2023-07-31T09:06:06;101383.94;;;19.27;39.31
37832;BME280;23671;38.090;-122.570;2023-07-31T09:08:34;101398.13;;;19.19;39.30
37832;BME280;23671;38.090;-122.570;2023-07-31T09:11:02;101391.97;;;19.19;39.57
37832;BME280;23671;38.090;-122.570;2023-07-31T09:13:32;101388.06;;;19.13;39.36
37832;BME280;23671;38.090;-122.570;2023-07-31T09:15:59;101382.38;;;19.08;39.47
37832;BME280;23671;38.090;-122.570;2023-07-31T09:18:26;101380.03;;;19.05;39.51
37832;BME280;23671;38.090;-122.570;2023-07-31T09:21:04;101381.34;;;19.01;39.65
37832;BME280;23671;38.090;-122.570;2023-07-31T09:23:45;101387.16;;;18.96;39.46
37832;BME280;23671;38.090;-122.570;2023-07-31T09:26:33;101382.44;;;18.90;39.54
37832;BME280;23671;38.090;-122.570;2023-07-31T09:29:01;101379.06;;;18.88;39.76
37832;BME280;23671;38.090;-122.570;2023-07-31T09:31:42;101379.72;;;18.82;39.69
37832;BME280;23671;38.090;-122.570;2023-07-31T09:34:10;101376.34;;;18.80;39.62
37832;BME280;23671;38.090;-122.570;2023-07-31T09:36:48;101374.00;;;18.77;39.58
37832;BME280;23671;38.090;-122.570;2023-07-31T09:39:17;101369.78;;;18.75;39.69
37832;BME280;23671;38.090;-122.570;2023-07-31T09:41:53;101375.63;;;18.70;39.69
37832;BME280;23671;38.090;-122.570;2023-07-31T09:44:20;101366.94;;;18.68;39.88
37832;BME280;23671;38.090;-122.570;2023-07-31T09:46:47;101370.22;;;18.62;39.98
37832;BME280;23671;38.090;-122.570;2023-07-31T09:49:16;101376.41;;;18.63;39.73
37832;BME280;23671;38.090;-122.570;2023-07-31T09:51:43;101371.84;;;18.55;39.96
37832;BME280;23671;38.090;-122.570;2023-07-31T09:54:11;101377.66;;;18.51;39.95
37832;BME280;23671;38.090;-122.570;2023-07-31T09:56:46;101364.75;;;18.46;39.98
37832;BME280;23671;38.090;-122.570;2023-07-31T09:59:21;101368.44;;;18.45;40.13
37832;BME280;23671;38.090;-122.570;2023-07-31T10:01:49;101370.28;;;18.45;39.99
37832;BME280;23671;38.090;-122.570;2023-07-31T10:04:18;101371.41;;;18.42;39.76
37832;BME280;23671;38.090;-122.570;2023-07-31T10:06:53;101366.81;;;18.35;40.10
37832;BME280;23671;38.090;-122.570;2023-07-31T10:09:22;101367.94;;;18.32;40.20
37832;BME280;23671;38.090;-122.570;2023-07-31T10:12:00;101367.59;;;18.27;40.22
37832;BME280;23671;38.090;-122.570;2023-07-31T10:14:32;101359.03;;;18.24;40.11
37832;BME280;23671;38.090;-122.570;2023-07-31T10:17:00;101360.88;;;18.23;40.34
37832;BME280;23671;38.090;-122.570;2023-07-31T10:19:27;101360.34;;;18.20;40.20
37832;BME280;23671;38.090;-122.570;2023-07-31T10:21:57;101363.47;;;18.15;40.37
37832;BME280;23671;38.090;-122.570;2023-07-31T10:24:25;101363.47;;;18.15;40.34
37832;BME280;23671;38.090;-122.570;2023-07-31T10:26:54;101360.63;;;18.16;40.24
37832;BME280;23671;38.090;-122.570;2023-07-31T10:29:25;101364.78;;;18.11;40.31
37832;BME280;23671;38.090;-122.570;2023-07-31T10:31:53;101363.28;;;18.08;40.44
37832;BME280;23671;38.090;-122.570;2023-07-31T10:34:22;101366.91;;;18.07;40.25
37832;BME280;23671;38.090;-122.570;2023-07-31T10:36:50;101366.38;;;18.04;40.29
37832;BME280;23671;38.090;-122.570;2023-07-31T10:39:36;101371.38;;;17.99;40.19
37832;BME280;23671;38.090;-122.570;2023-07-31T10:42:13;101366.03;;;17.99;40.51
37832;BME280;23671;38.090;-122.570;2023-07-31T10:44:50;101359.31;;;17.95;40.57
37832;BME280;23671;38.090;-122.570;2023-07-31T10:47:18;101372.50;;;17.96;40.37
37832;BME280;23671;38.090;-122.570;2023-07-31T10:49:46;101363.44;;;17.89;40.70
37832;BME280;23671;38.090;-122.570;2023-07-31T10:52:14;101368.38;;;17.84;40.80
37832;BME280;23671;38.090;-122.570;2023-07-31T10:54:46;101375.41;;;17.85;40.57
37832;BME280;23671;38.090;-122.570;2023-07-31T10:57:23;101371.19;;;17.83;40.56
37832;BME280;23671;38.090;-122.570;2023-07-31T10:59:51;101371.47;;;17.80;40.60
37832;BME280;23671;38.090;-122.570;2023-07-31T11:02:38;101366.31;;;17.78;40.60
37832;BME280;23671;38.090;-122.570;2023-07-31T11:05:09;101368.75;;;17.72;40.98
37832;BME280;23671;38.090;-122.570;2023-07-31T11:07:49;101368.59;;;17.73;40.81
37832;BME280;23671;38.090;-122.570;2023-07-31T11:10:19;101378.59;;;17.71;40.47
37832;BME280;23671;38.090;-122.570;2023-07-31T11:12:49;101376.09;;;17.70;40.55
37832;BME280;23671;38.090;-122.570;2023-07-31T11:15:17;101372.03;;;17.66;40.76
37832;BME280;23671;38.090;-122.570;2023-07-31T11:17:44;101371.50;;;17.62;41.00
37832;BME280;23671;38.090;-122.570;2023-07-31T11:20:11;101372.63;;;17.60;40.64
37832;BME280;23671;38.090;-122.570;2023-07-31T11:22:38;101368.56;;;17.56;40.65
37832;BME280;23671;38.090;-122.570;2023-07-31T11:25:05;101363.56;;;17.53;40.94
37832;BME280;23671;38.090;-122.570;2023-07-31T11:27:39;101355.97;;;17.48;41.04
37832;BME280;23671;38.090;-122.570;2023-07-31T11:30:10;101350.75;;;17.47;40.94
37832;BME280;23671;38.090;-122.570;2023-07-31T11:32:38;101355.09;;;17.48;40.92
37832;BME280;23671;38.090;-122.570;2023-07-31T11:35:05;101354.72;;;17.43;40.82
37832;BME280;23671;38.090;-122.570;2023-07-31T11:37:41;101359.38;;;17.41;41.14
37832;BME280;23671;38.090;-122.570;2023-07-31T11:40:09;101354.03;;;17.41;40.75
37832;BME280;23671;38.090;-122.570;2023-07-31T11:42:37;101361.50;;;17.37;41.08
37832;BME280;23671;38.090;-122.570;2023-07-31T11:45:05;101376.66;;;17.37;40.94
37832;BME280;23671;38.090;-122.570;2023-07-31T11:47:34;101370.78;;;17.33;40.97
37832;BME280;23671;38.090;-122.570;2023-07-31T11:50:03;101370.38;;;17.28;40.88
37832;BME280;23671;38.090;-122.570;2023-07-31T11:52:31;101376.19;;;17.23;40.85
37832;BME280;23671;38.090;-122.570;2023-07-31T11:55:00;101374.22;;;17.25;41.08
37832;BME280;23671;38.090;-122.570;2023-07-31T11:57:27;101365.78;;;17.20;41.14
37832;BME280;23671;38.090;-122.570;2023-07-31T11:59:56;101370.31;;;17.20;41.03
37832;BME280;23671;38.090;-122.570;2023-07-31T12:02:24;101368.06;;;17.15;41.34
37832;BME280;23671;38.090;-122.570;2023-07-31T12:04:51;101367.22;;;17.15;41.11
37832;BME280;23671;38.090;-122.570;2023-07-31T12:07:19;101373.00;;;17.10;41.35
37832;BME280;23671;38.090;-122.570;2023-07-31T12:09:55;101371.75;;;17.05;41.44
37832;BME280;23671;38.090;-122.570;2023-07-31T12:12:26;101366.56;;;17.03;41.21
37832;BME280;23671;38.090;-122.570;2023-07-31T12:14:53;101369.66;;;16.99;41.06
37832;BME280;23671;38.090;-122.570;2023-07-31T12:17:21;101367.31;;;16.96;41.43
37832;BME280;23671;38.090;-122.570;2023-07-31T12:19:49;101371.09;;;16.93;41.24
37832;BME280;23671;38.090;-122.570;2023-07-31T12:22:16;101379.09;;;16.93;41.30
37832;BME280;23671;38.090;-122.570;2023-07-31T12:24:45;101384.91;;;16.89;41.47
37832;BME280;23671;38.090;-122.570;2023-07-31T12:27:13;101380.53;;;16.88;41.22
37832;BME280;23671;38.090;-122.570;2023-07-31T12:29:42;101385.47;;;16.83;41.58
37832;BME280;23671;38.090;-122.570;2023-07-31T12:32:24;101389.25;;;16.80;41.75
37832;BME280;23671;38.090;-122.570;2023-07-31T12:34:52;101390.97;;;16.81;41.70